Time;durP1;ratioP1;P1;durP2;ratioP2;P2;SDS_P1;SDS_P2;PMS_P1;PMS_P2;Temp;Humidity;BMP_temperature;BMP_pressure;BME280_temperature;BME280_humidity;BME280_pressure;Samples;Min_cycle;Max_cycle;Signal;HPM_P1;HPM_P2
2023/11/18 00:00:41;;;;;;;2.93;2.70;;;4.60;98.20;;;;;;4955813;28;21044;-79
2023/11/18 00:03:08;;;;;;;1.93;1.73;;;4.60;98.20;;;;;;4958519;28;20485;-78
2023/11/18 00:05:34;;;;;;;1.63;1.40;;;4.60;98.20;;;;;;4952990;28;20471;-78
2023/11/18 00:08:01;;;;;;;1.70;1.50;;;4.60;98.20;;;;;;4959935;28;20954;-79
2023/11/18 00:10:29;;;;;;;1.60;1.30;;;4.60;98.20;;;;;;4951415;28;20473;-78
2023/11/18 00:12:57;;;;;;;1.67;1.40;;;4.60;98.20;;;;;;4951783;28;20496;-78
2023/11/18 00:15:24;;;;;;;1.70;1.50;;;4.60;98.20;;;;;;4950863;28;20481;-78
2023/11/18 00:17:51;;;;;;;1.70;1.50;;;4.60;98.20;;;;;;4954019;28;20495;-78
2023/11/18 00:20:18;;;;;;;1.60;1.40;;;4.70;98.20;;;;;;4953447;28;20569;-77
2023/11/18 00:22:45;;;;;;;1.67;1.40;;;4.70;98.20;;;;;;4952333;28;20489;-78
2023/11/18 00:25:14;;;;;;;5.13;3.90;;;4.70;98.20;;;;;;4949129;28;20486;-79
2023/11/18 00:27:41;;;;;;;1.70;1.40;;;4.70;98.20;;;;;;4949470;28;20489;-78
2023/11/18 00:30:10;;;;;;;1.67;1.40;;;4.80;98.20;;;;;;4947983;28;20475;-78
2023/11/18 00:32:38;;;;;;;1.70;1.40;;;4.80;98.20;;;;;;4945936;28;20521;-77
2023/11/18 00:35:06;;;;;;;1.70;1.40;;;4.80;98.20;;;;;;5002068;23;21074;-83
2023/11/18 00:37:33;;;;;;;1.70;1.50;;;4.80;98.20;;;;;;5007041;28;20490;-82
2023/11/18 00:40:00;;;;;;;1.67;1.40;;;4.80;98.20;;;;;;5012447;28;20881;-83
2023/11/18 00:42:26;;;;;;;1.70;1.40;;;4.80;98.20;;;;;;5015837;28;20492;-83
2023/11/18 00:44:55;;;;;;;2.17;1.97;;;4.80;98.20;;;;;;5014044;28;20480;-83
2023/11/18 00:47:23;;;;;;;1.70;1.50;;;4.80;98.20;;;;;;5009065;28;21011;-83
2023/11/18 00:49:52;;;;;;;1.70;1.60;;;4.80;98.20;;;;;;5007527;28;20601;-84
2023/11/18 00:52:19;;;;;;;1.67;1.37;;;4.90;98.20;;;;;;4996775;28;20766;-83
2023/11/18 00:54:46;;;;;;;1.70;1.40;;;4.90;98.20;;;;;;4987843;28;20860;-82
2023/11/18 00:57:13;;;;;;;1.60;1.30;;;4.90;98.20;;;;;;4999874;28;20479;-83
2023/11/18 00:59:43;;;;;;;1.63;1.30;;;4.90;98.20;;;;;;5011540;28;20522;-83
2023/11/18 01:02:09;;;;;;;1.70;1.40;;;4.90;98.20;;;;;;5007352;28;20503;-82
2023/11/18 01:04:38;;;;;;;1.60;1.37;;;4.90;98.20;;;;;;5004948;28;20982;-82
2023/11/18 01:07:04;;;;;;;1.60;1.30;;;4.90;98.20;;;;;;5000778;28;20574;-84
2023/11/18 01:09:36;;;;;;;1.70;1.30;;;5.00;98.20;;;;;;5005766;28;20461;-83
2023/11/18 01:12:03;;;;;;;1.60;1.30;;;5.00;98.20;;;;;;5003679;28;20518;-82
2023/11/18 01:14:30;;;;;;;1.67;1.40;;;5.00;98.20;;;;;;5015065;28;20490;-86
2023/11/18 01:16:57;;;;;;;5.87;3.40;;;5.00;98.20;;;;;;5010956;28;20487;-82
2023/11/18 01:19:24;;;;;;;1.67;1.30;;;5.10;98.20;;;;;;5017969;28;20484;-83
2023/11/18 01:21:53;;;;;;;1.60;1.30;;;5.10;98.20;;;;;;5009422;28;21069;-83
2023/11/18 01:24:20;;;;;;;1.60;1.30;;;5.10;98.20;;;;;;5024088;28;20545;-83
2023/11/18 01:26:47;;;;;;;2.83;2.63;;;5.10;98.20;;;;;;4996331;28;20558;-83
2023/11/18 01:29:14;;;;;;;1.70;1.40;;;5.10;98.20;;;;;;5001183;28;20457;-83
2023/11/18 01:31:41;;;;;;;1.70;1.40;;;5.10;98.20;;;;;;4997678;28;20475;-82
2023/11/18 01:34:08;;;;;;;1.60;1.30;;;5.10;98.20;;;;;;5000053;28;20555;-82
2023/11/18 01:36:35;;;;;;;1.70;1.40;;;5.10;98.20;;;;;;5002278;28;20482;-82
2023/11/18 01:39:04;;;;;;;1.60;1.30;;;5.10;98.20;;;;;;5019048;28;20841;-81
2023/11/18 01:41:32;;;;;;;1.63;1.30;;;5.10;98.20;;;;;;5005002;28;20514;-84
2023/11/18 01:43:59;;;;;;;1.60;1.30;;;5.10;98.20;;;;;;5012784;28;20519;-81
2023/11/18 01:46:29;;;;;;;1.60;1.30;;;5.10;98.20;;;;;;4999303;28;20478;-82
2023/11/18 01:48:58;;;;;;;1.60;1.37;;;5.10;98.20;;;;;;5003353;28;20463;-83
2023/11/18 01:51:25;;;;;;;1.70;1.50;;;5.10;98.20;;;;;;5006160;28;20474;-82
2023/11/18 01:53:52;;;;;;;1.70;1.50;;;5.10;98.20;;;;;;5016204;28;20575;-82
2023/11/18 01:56:24;;;;;;;2.70;2.50;;;5.10;98.20;;;;;;5000750;28;20474;-82
2023/11/18 01:58:51;;;;;;;1.70;1.40;;;5.10;98.20;;;;;;5018800;28;20631;-82
2023/11/18 02:01:18;;;;;;;1.60;1.30;;;5.00;98.20;;;;;;5004797;28;20479;-82
2023/11/18 02:03:44;;;;;;;1.70;1.33;;;5.00;98.20;;;;;;5020316;28;20506;-83
2023/11/18 02:06:11;;;;;;;1.70;1.47;;;5.00;98.20;;;;;;5004683;28;20474;-83
2023/11/18 02:08:38;;;;;;;1.60;1.30;;;5.00;98.20;;;;;;5016951;28;20210;-83
2023/11/18 02:11:12;;;;;;;1.60;1.40;;;5.00;98.20;;;;;;4995254;28;20472;-82
2023/11/18 02:13:44;;;;;;;1.60;1.30;;;5.00;98.20;;;;;;5021088;28;20765;-83
2023/11/18 02:16:11;;;;;;;1.60;1.30;;;5.00;98.20;;;;;;5001610;28;20503;-83
2023/11/18 02:18:42;;;;;;;1.67;1.37;;;5.10;98.20;;;;;;5001820;28;20453;-82
2023/11/18 02:21:11;;;;;;;1.67;1.40;;;5.10;98.20;;;;;;4984319;28;20877;-82
2023/11/18 02:23:38;;;;;;;1.67;1.30;;;5.10;98.20;;;;;;5020267;28;20842;-82
2023/11/18 02:26:06;;;;;;;1.70;1.40;;;5.10;98.20;;;;;;5000350;28;20502;-82
2023/11/18 02:28:33;;;;;;;1.60;1.30;;;5.10;98.20;;;;;;5019499;28;20468;-83
2023/11/18 02:31:06;;;;;;;1.67;1.40;;;5.10;98.20;;;;;;4999220;28;20465;-82
2023/11/18 02:33:41;;;;;;;1.63;1.30;;;5.10;98.20;;;;;;5006820;28;20492;-83
2023/11/18 02:36:15;;;;;;;1.60;1.20;;;5.10;98.20;;;;;;5005336;28;20718;-82
2023/11/18 02:38:49;;;;;;;1.60;1.30;;;5.10;98.20;;;;;;5020168;28;20468;-81
2023/11/18 02:41:19;;;;;;;1.70;1.40;;;5.10;98.20;;;;;;5001977;28;20478;-82
2023/11/18 02:43:46;;;;;;;1.60;1.30;;;5.10;98.20;;;;;;5017498;28;21057;-82
2023/11/18 02:46:14;;;;;;;1.70;1.40;;;5.20;98.20;;;;;;4997324;28;21014;-82
2023/11/18 02:48:42;;;;;;;1.60;1.30;;;5.10;98.20;;;;;;5006549;28;20468;-82
2023/11/18 02:51:09;;;;;;;1.67;1.30;;;5.20;98.20;;;;;;4998297;28;20987;-82
2023/11/18 02:53:36;;;;;;;1.60;1.30;;;5.10;98.20;;;;;;5005120;28;20634;-82
2023/11/18 02:56:04;;;;;;;1.70;1.40;;;5.10;98.20;;;;;;5000380;28;20479;-82
2023/11/18 02:58:33;;;;;;;1.70;1.40;;;5.10;98.20;;;;;;5020448;28;20464;-82
2023/11/18 03:01:00;;;;;;;1.67;1.40;;;5.10;98.20;;;;;;4998457;28;20584;-82
2023/11/18 03:03:28;;;;;;;1.63;1.33;;;5.10;98.20;;;;;;5021413;28;20538;-83
2023/11/18 03:05:55;;;;;;;2.70;2.50;;;5.10;98.20;;;;;;5002696;28;20471;-81
2023/11/18 03:08:21;;;;;;;1.60;1.30;;;5.10;98.20;;;;;;5007386;28;20547;-82
2023/11/18 03:10:52;;;;;;;1.73;1.63;;;5.10;98.20;;;;;;4999824;28;20491;-82
2023/11/18 03:13:19;;;;;;;1.60;1.30;;;5.20;98.20;;;;;;5022160;28;20880;-81
2023/11/18 03:15:48;;;;;;;1.70;1.40;;;5.20;98.20;;;;;;5007311;28;20468;-83
2023/11/18 03:18:15;;;;;;;1.60;1.30;;;5.20;98.20;;;;;;5012606;28;20539;-81
2023/11/18 03:20:42;;;;;;;1.60;1.40;;;5.20;98.20;;;;;;5007545;28;20492;-82
2023/11/18 03:23:09;;;;;;;2.20;2.00;;;5.20;98.20;;;;;;4995927;28;21006;-82
2023/11/18 03:25:37;;;;;;;1.67;1.30;;;5.10;98.20;;;;;;5007413;28;21132;-82
2023/11/18 03:28:06;;;;;;;1.70;1.50;;;5.10;98.20;;;;;;4996465;28;20490;-81
2023/11/18 03:30:33;;;;;;;1.67;1.40;;;5.10;98.20;;;;;;5008159;28;20475;-81
2023/11/18 03:33:01;;;;;;;1.97;1.77;;;5.10;98.20;;;;;;4994430;28;21002;-82
2023/11/18 03:35:28;;;;;;;1.67;1.30;;;5.10;98.20;;;;;;5009668;28;20495;-82
2023/11/18 03:37:55;;;;;;;1.67;1.37;;;5.10;98.20;;;;;;5011907;28;20767;-82
2023/11/18 03:40:21;;;;;;;1.60;1.30;;;5.10;98.20;;;;;;5007867;28;20493;-82
2023/11/18 03:42:48;;;;;;;2.80;2.50;;;5.10;98.20;;;;;;5012912;28;20891;-83
2023/11/18 03:45:17;;;;;;;1.60;1.30;;;5.10;98.20;;;;;;5006311;28;20627;-81
2023/11/18 03:47:45;;;;;;;1.63;1.40;;;5.10;98.20;;;;;;4997728;28;20542;-82
2023/11/18 03:50:14;;;;;;;1.60;1.30;;;5.10;98.20;;;;;;5005657;28;20464;-82
2023/11/18 03:52:40;;;;;;;1.70;1.40;;;5.10;98.20;;;;;;4995050;28;20480;-81
2023/11/18 03:55:08;;;;;;;1.70;1.40;;;5.10;98.20;;;;;;5004283;28;20490;-82
2023/11/18 03:57:35;;;;;;;1.60;1.40;;;5.10;98.20;;;;;;5010730;28;20479;-83
2023/11/18 04:00:02;;;;;;;1.70;1.53;;;5.10;98.20;;;;;;5007732;28;20856;-83
2023/11/18 04:02:29;;;;;;;1.60;1.30;;;5.10;98.20;;;;;;5006083;28;20495;-81
2023/11/18 04:04:56;;;;;;;1.63;1.30;;;5.10;98.20;;;;;;5006601;28;20554;-82
2023/11/18 04:07:24;;;;;;;1.70;1.40;;;5.10;98.20;;;;;;4996019;28;20574;-81
2023/11/18 04:09:51;;;;;;;1.70;1.40;;;5.20;98.20;;;;;;5002751;28;20512;-82
2023/11/18 04:12:18;;;;;;;1.70;1.40;;;5.10;98.20;;;;;;5006525;28;20487;-82
2023/11/18 04:14:44;;;;;;;1.60;1.30;;;5.20;98.20;;;;;;5010433;28;21010;-82
2023/11/18 04:17:12;;;;;;;1.67;1.40;;;5.20;98.20;;;;;;5006319;28;20574;-82
2023/11/18 04:19:39;;;;;;;1.70;1.40;;;5.20;98.20;;;;;;5009143;28;20467;-82
2023/11/18 04:22:06;;;;;;;1.60;1.30;;;5.20;98.20;;;;;;4994429;28;20478;-83
2023/11/18 04:24:35;;;;;;;1.70;1.37;;;5.20;98.20;;;;;;5006291;28;20488;-81
2023/11/18 04:27:02;;;;;;;1.60;1.30;;;5.20;98.20;;;;;;4994312;28;20480;-83
2023/11/18 04:29:29;;;;;;;1.60;1.30;;;5.10;98.20;;;;;;5004425;28;20595;-82
2023/11/18 04:31:55;;;;;;;1.70;1.50;;;5.10;98.20;;;;;;4993378;28;20852;-83
2023/11/18 04:34:23;;;;;;;1.70;1.33;;;5.10;98.20;;;;;;5002433;28;20487;-84
2023/11/18 04:36:50;;;;;;;1.60;1.30;;;5.10;98.20;;;;;;5004581;28;20483;-83
2023/11/18 04:39:17;;;;;;;1.70;1.40;;;5.10;98.20;;;;;;5015962;28;20853;-82
2023/11/18 04:41:45;;;;;;;1.60;1.30;;;5.10;98.20;;;;;;5003854;28;20498;-82
2023/11/18 04:44:13;;;;;;;1.60;1.30;;;5.10;98.20;;;;;;5010594;28;20488;-82
2023/11/18 04:46:40;;;;;;;1.70;1.40;;;5.10;98.20;;;;;;4995594;28;21086;-83
2023/11/18 04:49:07;;;;;;;1.63;1.30;;;5.10;98.20;;;;;;5001518;28;20460;-82
2023/11/18 04:51:34;;;;;;;1.70;1.40;;;5.10;98.20;;;;;;4993261;28;20478;-84
2023/11/18 04:54:03;;;;;;;1.60;1.30;;;5.10;98.20;;;;;;5001354;28;20507;-83
2023/11/18 04:56:30;;;;;;;1.63;1.30;;;5.10;98.20;;;;;;4989748;28;20492;-83
2023/11/18 04:58:58;;;;;;;1.60;1.30;;;5.10;98.20;;;;;;5007298;28;20547;-83
2023/11/18 05:01:25;;;;;;;1.60;1.30;;;5.10;98.20;;;;;;4995315;28;20474;-84
2023/11/18 05:03:52;;;;;;;1.70;1.40;;;5.10;98.20;;;;;;5001926;28;20480;-84
2023/11/18 05:06:19;;;;;;;1.70;1.50;;;5.10;98.20;;;;;;4999747;28;20483;-83
2023/11/18 05:08:46;;;;;;;1.63;1.33;;;5.10;98.20;;;;;;5006045;28;20467;-83
2023/11/18 05:11:13;;;;;;;1.60;1.30;;;5.10;98.20;;;;;;4995458;28;20475;-83
2023/11/18 05:13:40;;;;;;;2.03;1.83;;;5.10;98.20;;;;;;5008158;28;20487;-84
2023/11/18 05:16:10;;;;;;;1.70;1.50;;;5.10;98.20;;;;;;5009234;28;20669;-83
2023/11/18 05:18:38;;;;;;;1.70;1.50;;;5.10;98.20;;;;;;5029009;28;20467;-85
2023/11/18 05:21:06;;;;;;;1.87;1.67;;;5.10;98.20;;;;;;5002401;28;20535;-83
2023/11/18 05:23:34;;;;;;;1.70;1.40;;;5.10;98.20;;;;;;5001264;28;20571;-84
2023/11/18 05:26:04;;;;;;;1.70;1.40;;;5.10;98.20;;;;;;4997246;28;20465;-83
2023/11/18 05:28:31;;;;;;;1.70;1.40;;;5.10;98.20;;;;;;5023101;28;20836;-83
2023/11/18 05:31:01;;;;;;;1.60;1.30;;;5.10;98.20;;;;;;5000585;28;20470;-84
2023/11/18 05:33:30;;;;;;;1.70;1.47;;;5.10;98.20;;;;;;5016930;28;21026;-85
2023/11/18 05:35:56;;;;;;;1.63;1.30;;;5.10;98.20;;;;;;4995550;28;20487;-83
2023/11/18 05:38:26;;;;;;;1.60;1.30;;;5.10;98.20;;;;;;5012219;28;20464;-83
2023/11/18 05:40:56;;;;;;;1.63;1.30;;;5.10;98.20;;;;;;5000948;28;20519;-83
2023/11/18 05:43:25;;;;;;;1.70;1.40;;;5.10;98.20;;;;;;5006051;28;20878;-82
2023/11/18 05:48:52;;;;;;;1.63;1.40;;;5.20;98.20;;;;;;5080307;27;1249617;-80
2023/11/18 05:51:22;;;;;;;1.70;1.30;;;5.20;98.20;;;;;;5088312;28;20497;-80
2023/11/18 05:53:49;;;;;;;1.70;1.40;;;5.30;98.20;;;;;;5060135;28;20486;-82
2023/11/18 05:56:17;;;;;;;1.63;1.30;;;5.30;98.20;;;;;;5036336;28;20467;-83
2023/11/18 05:58:44;;;;;;;1.70;1.43;;;5.40;98.20;;;;;;5029379;28;20459;-80
2023/11/18 06:01:11;;;;;;;1.70;1.40;;;5.40;98.20;;;;;;5012042;28;21021;-80
2023/11/18 06:03:39;;;;;;;1.80;1.40;;;5.40;98.20;;;;;;5034248;28;20521;-82
2023/11/18 06:06:09;;;;;;;1.60;1.30;;;5.40;98.20;;;;;;5014315;28;20460;-80
2023/11/18 06:08:38;;;;;;;1.67;1.30;;;5.40;98.20;;;;;;5034429;28;20494;-81
2023/11/18 06:11:12;;;;;;;1.70;1.47;;;5.40;98.20;;;;;;5012209;28;20475;-82
2023/11/18 06:13:42;;;;;;;1.70;1.50;;;5.50;98.20;;;;;;5041278;28;20551;-82
2023/11/18 06:16:13;;;;;;;1.70;1.30;;;5.40;98.20;;;;;;5024305;28;21049;-82
2023/11/18 06:18:42;;;;;;;1.60;1.30;;;5.40;98.20;;;;;;5037668;28;20549;-83
2023/11/18 06:21:12;;;;;;;2.33;2.13;;;5.40;98.20;;;;;;5017486;28;20503;-82
2023/11/18 06:23:38;;;;;;;1.60;1.30;;;5.40;98.20;;;;;;5037630;28;21002;-80
2023/11/18 06:26:06;;;;;;;1.63;1.40;;;5.50;98.20;;;;;;5019856;28;20477;-83
2023/11/18 06:28:33;;;;;;;1.60;1.30;;;5.50;98.20;;;;;;5038655;28;20480;-82
2023/11/18 06:31:00;;;;;;;4.17;3.87;;;5.50;98.20;;;;;;5017138;28;20476;-81
2023/11/18 06:33:27;;;;;;;1.67;1.30;;;5.50;98.20;;;;;;5037649;28;20543;-82
2023/11/18 06:35:56;;;;;;;1.60;1.40;;;5.50;98.20;;;;;;5019406;28;20517;-82
2023/11/18 06:38:24;;;;;;;3.17;2.90;;;5.50;98.20;;;;;;5039074;28;20476;-81
2023/11/18 06:40:52;;;;;;;1.60;1.33;;;5.50;98.20;;;;;;5010483;28;20494;-81
2023/11/18 06:43:20;;;;;;;1.60;1.30;;;5.50;98.20;;;;;;5019446;28;20947;-81
2023/11/18 06:45:48;;;;;;;1.60;1.30;;;5.50;98.20;;;;;;5016332;28;20471;-81
2023/11/18 06:48:18;;;;;;;1.70;1.40;;;5.50;98.20;;;;;;5032845;28;20490;-81
2023/11/18 06:50:47;;;;;;;1.70;1.40;;;5.60;98.20;;;;;;5039764;28;20530;-81
2023/11/18 06:53:15;;;;;;;1.90;1.70;;;5.60;98.20;;;;;;5034235;28;20972;-82
2023/11/18 06:55:43;;;;;;;1.70;1.30;;;5.60;98.20;;;;;;5042684;28;20538;-82
2023/11/18 06:58:10;;;;;;;1.60;1.40;;;5.60;98.20;;;;;;5025701;28;20875;-81
2023/11/18 07:00:38;;;;;;;1.63;1.40;;;5.60;98.20;;;;;;5028739;28;20529;-81
2023/11/18 07:03:05;;;;;;;1.60;1.30;;;5.60;98.20;;;;;;5022501;28;20591;-81
2023/11/18 07:05:32;;;;;;;1.70;1.40;;;5.70;98.20;;;;;;5028133;28;20525;-81
2023/11/18 07:07:59;;;;;;;1.70;1.30;;;5.70;98.20;;;;;;5007433;28;20918;-80
2023/11/18 07:10:27;;;;;;;1.60;1.23;;;5.70;98.20;;;;;;5025915;28;20976;-81
2023/11/18 07:12:55;;;;;;;1.60;1.30;;;5.70;98.20;;;;;;5027060;28;20514;-81
2023/11/18 07:15:22;;;;;;;1.70;1.40;;;5.80;98.20;;;;;;5022643;28;20482;-81
2023/11/18 07:17:49;;;;;;;1.70;1.30;;;5.80;98.20;;;;;;5011072;28;20476;-80
2023/11/18 07:20:16;;;;;;;1.70;1.30;;;5.80;98.20;;;;;;5026553;28;20459;-81
2023/11/18 07:22:43;;;;;;;1.67;1.30;;;5.80;98.20;;;;;;5006711;28;20536;-81
2023/11/18 07:25:10;;;;;;;2.03;1.83;;;5.90;98.20;;;;;;5028122;28;20483;-82
2023/11/18 07:27:37;;;;;;;1.60;1.30;;;5.90;98.20;;;;;;5011898;28;20911;-81
2023/11/18 07:30:10;;;;;;;1.70;1.40;;;6.00;98.20;;;;;;5027935;28;20467;-80
2023/11/18 07:32:37;;;;;;;1.70;1.40;;;6.00;98.20;;;;;;5022424;28;20810;-82
2023/11/18 07:35:08;;;;;;;1.60;1.30;;;6.00;98.20;;;;;;5029376;28;20488;-81
2023/11/18 07:37:35;;;;;;;1.60;1.30;;;6.00;98.20;;;;;;5023975;28;20504;-82
2023/11/18 07:40:04;;;;;;;1.70;1.33;;;6.10;98.20;;;;;;5025662;28;21568;-81
2023/11/18 07:42:34;;;;;;;1.60;1.30;;;6.10;98.20;;;;;;5021754;28;20478;-81
2023/11/18 07:45:03;;;;;;;1.63;1.40;;;6.10;98.20;;;;;;5023342;28;21438;-79
2023/11/18 07:47:32;;;;;;;1.67;1.30;;;6.20;98.20;;;;;;5015610;28;20493;-80
2023/11/18 07:49:59;;;;;;;3.60;1.90;;;6.20;98.20;;;;;;5028373;28;20466;-80
2023/11/18 07:52:27;;;;;;;1.60;1.20;;;6.20;98.20;;;;;;5011615;28;20474;-80
2023/11/18 07:54:54;;;;;;;1.63;1.30;;;6.20;98.20;;;;;;5026042;28;20697;-81
2023/11/18 07:57:21;;;;;;;1.70;1.40;;;6.20;98.20;;;;;;5030810;28;20707;-80
2023/11/18 07:59:47;;;;;;;1.70;1.30;;;6.20;98.20;;;;;;5028739;28;20463;-79
2023/11/18 08:02:15;;;;;;;1.70;1.40;;;6.30;98.20;;;;;;5021948;28;20485;-79
2023/11/18 08:04:45;;;;;;;1.70;1.50;;;6.30;98.20;;;;;;5028960;28;20479;-81
2023/11/18 08:07:11;;;;;;;1.63;1.30;;;6.30;98.20;;;;;;5014347;28;20501;-83
2023/11/18 08:09:39;;;;;;;1.60;1.20;;;6.40;98.20;;;;;;5024736;28;20467;-80
2023/11/18 08:12:09;;;;;;;2.23;2.03;;;6.40;98.20;;;;;;5011425;28;20728;-84
2023/11/18 08:14:35;;;;;;;1.70;1.40;;;6.40;98.20;;;;;;5025711;28;20498;-80
2023/11/18 08:17:04;;;;;;;1.60;1.30;;;6.40;98.20;;;;;;5015602;28;20882;-81
2023/11/18 08:19:32;;;;;;;1.63;1.27;;;6.50;98.20;;;;;;5022798;28;20513;-82
2023/11/18 08:22:01;;;;;;;1.63;1.27;;;6.50;98.20;;;;;;5023528;28;20556;-82
2023/11/18 08:24:29;;;;;;;1.60;1.30;;;6.60;98.20;;;;;;5030418;28;20479;-79
2023/11/18 08:26:56;;;;;;;1.60;1.30;;;6.60;98.20;;;;;;5023147;28;20493;-79
2023/11/18 08:29:24;;;;;;;1.70;1.40;;;6.60;98.20;;;;;;5032094;28;20491;-78
2023/11/18 08:31:51;;;;;;;1.70;1.50;;;6.70;98.20;;;;;;5022280;28;20513;-78
2023/11/18 08:34:18;;;;;;;1.63;1.30;;;6.70;98.20;;;;;;5032537;28;20494;-80
2023/11/18 08:36:46;;;;;;;1.63;1.30;;;6.70;98.20;;;;;;5020840;28;21048;-79
2023/11/18 08:39:16;;;;;;;1.70;1.30;;;6.70;98.20;;;;;;5031455;28;20459;-80
2023/11/18 08:41:45;;;;;;;1.63;1.30;;;6.70;98.20;;;;;;5011967;28;20528;-80
2023/11/18 08:44:13;;;;;;;1.60;1.30;;;6.80;98.20;;;;;;5032610;28;20479;-78
2023/11/18 08:46:41;;;;;;;1.60;1.20;;;6.80;98.20;;;;;;5014105;28;20490;-77
2023/11/18 08:49:10;;;;;;;1.70;1.30;;;6.80;98.20;;;;;;5028241;28;20487;-78
2023/11/18 08:51:38;;;;;;;2.97;2.77;;;6.90;98.20;;;;;;5022994;28;20555;-78
2023/11/18 08:54:22;;;;;;;1.60;1.30;;;6.90;98.20;;;;;;5032874;28;21246;-77
2023/11/18 08:56:51;;;;;;;1.67;1.30;;;6.90;98.20;;;;;;5022290;28;20877;-77
2023/11/18 08:59:24;;;;;;;2.07;1.87;;;6.90;98.20;;;;;;5031052;28;20494;-78
2023/11/18 09:01:55;;;;;;;1.60;1.23;;;7.00;98.20;;;;;;5017490;28;20942;-78
2023/11/18 09:04:23;;;;;;;1.67;1.30;;;7.00;98.20;;;;;;5027174;28;20851;-78
2023/11/18 09:06:51;;;;;;;1.67;1.30;;;7.00;98.20;;;;;;5021774;28;20877;-80
2023/11/18 09:09:25;;;;;;;1.70;1.30;;;7.10;98.20;;;;;;5035074;28;20582;-77
2023/11/18 09:11:56;;;;;;;2.43;2.23;;;7.10;98.20;;;;;;5021125;28;21500;-77
2023/11/18 09:14:24;;;;;;;1.60;1.27;;;7.10;98.20;;;;;;5031646;28;20523;-77
2023/11/18 09:16:51;;;;;;;1.60;1.30;;;7.20;98.20;;;;;;5021785;28;20552;-78
2023/11/18 09:19:21;;;;;;;1.70;1.40;;;7.20;98.20;;;;;;5028422;28;20461;-77
2023/11/18 09:21:48;;;;;;;1.70;1.30;;;7.20;98.20;;;;;;5007706;28;20483;-79
2023/11/18 09:24:19;;;;;;;1.60;1.20;;;7.20;98.20;;;;;;5021486;28;21028;-77
2023/11/18 09:26:49;;;;;;;1.70;1.40;;;7.20;98.20;;;;;;5014854;28;20479;-78
2023/11/18 09:29:18;;;;;;;1.60;1.20;;;7.20;98.20;;;;;;5026744;28;20494;-79
2023/11/18 09:31:49;;;;;;;2.50;2.30;;;7.20;98.20;;;;;;5023955;28;20483;-81
2023/11/18 09:34:16;;;;;;;1.70;1.57;;;7.20;98.20;;;;;;5034164;28;21024;-78
2023/11/18 09:36:44;;;;;;;1.70;1.40;;;7.20;98.20;;;;;;5022073;28;20494;-78
2023/11/18 09:39:28;;;;;;;1.60;1.30;;;7.20;98.20;;;;;;5031872;28;20459;-77
2023/11/18 09:41:56;;;;;;;1.63;1.30;;;7.20;98.20;;;;;;5015625;28;20758;-77
2023/11/18 09:44:26;;;;;;;1.70;1.33;;;7.20;98.20;;;;;;5026158;28;20986;-76
2023/11/18 09:47:04;;;;;;;1.67;1.30;;;7.30;98.20;;;;;;5006511;28;20936;-77
2023/11/18 09:49:38;;;;;;;2.23;2.03;;;7.30;98.20;;;;;;5019330;28;20666;-77
2023/11/18 09:52:07;;;;;;;1.70;1.43;;;7.40;98.20;;;;;;5006587;28;20477;-79
2023/11/18 09:54:41;;;;;;;1.60;1.20;;;7.40;98.20;;;;;;5020023;28;20483;-79
2023/11/18 09:57:13;;;;;;;1.70;1.30;;;7.50;98.20;;;;;;5022006;28;20486;-78
2023/11/18 09:59:54;;;;;;;1.63;1.30;;;7.50;98.20;;;;;;5029216;28;20463;-78
2023/11/18 10:02:23;;;;;;;1.63;1.30;;;7.60;98.20;;;;;;5015584;28;20557;-77
2023/11/18 10:04:57;;;;;;;1.60;1.20;;;7.60;98.20;;;;;;5022576;28;20915;-77
2023/11/18 10:07:26;;;;;;;1.60;1.20;;;7.60;98.20;;;;;;5006059;28;20491;-78
2023/11/18 10:09:57;;;;;;;1.70;1.20;;;7.70;98.20;;;;;;5022136;28;20564;-77
2023/11/18 10:12:26;;;;;;;1.60;1.23;;;7.70;98.20;;;;;;5020129;28;20486;-78
2023/11/18 10:14:56;;;;;;;1.60;1.30;;;7.70;98.20;;;;;;5022048;28;20911;-77
2023/11/18 10:17:24;;;;;;;1.90;1.70;;;7.70;98.20;;;;;;5020605;28;20486;-77
2023/11/18 10:19:56;;;;;;;1.70;1.40;;;7.70;98.20;;;;;;5020171;28;20464;-77
2023/11/18 10:22:25;;;;;;;2.03;1.77;;;7.70;98.20;;;;;;5006168;28;20959;-77
2023/11/18 10:24:54;;;;;;;1.63;1.27;;;7.80;98.20;;;;;;5023092;28;20478;-79
2023/11/18 10:27:25;;;;;;;1.60;1.20;;;7.80;98.20;;;;;;5021039;28;20510;-77
2023/11/18 10:29:57;;;;;;;1.70;1.50;;;7.80;98.20;;;;;;5024859;28;20495;-77
2023/11/18 10:32:27;;;;;;;1.60;1.20;;;7.80;98.20;;;;;;5020103;28;20466;-77
2023/11/18 10:35:01;;;;;;;1.60;1.30;;;7.90;98.20;;;;;;5027541;28;20483;-81
2023/11/18 10:37:30;;;;;;;1.63;1.20;;;7.90;98.20;;;;;;5025898;28;20525;-77
2023/11/18 10:39:58;;;;;;;1.60;1.20;;;7.90;98.20;;;;;;5027839;28;20452;-80
2023/11/18 10:42:30;;;;;;;1.70;1.30;;;7.90;98.20;;;;;;5025032;28;20482;-77
2023/11/18 10:45:01;;;;;;;1.63;1.20;;;7.90;98.20;;;;;;5029922;28;20513;-77
2023/11/18 10:47:38;;;;;;;1.67;1.30;;;7.90;98.20;;;;;;5023547;28;20473;-78
2023/11/18 10:50:09;;;;;;;1.60;1.20;;;7.90;98.20;;;;;;5026406;28;20495;-77
2023/11/18 10:52:40;;;;;;;1.60;1.20;;;7.90;98.20;;;;;;5004483;28;20558;-77
2023/11/18 10:55:11;;;;;;;1.60;1.20;;;7.90;98.20;;;;;;5021308;28;20594;-78
2023/11/18 10:57:38;;;;;;;1.60;1.20;;;7.90;98.20;;;;;;5023298;28;21008;-78
2023/11/18 11:00:14;;;;;;;2.27;2.07;;;8.00;98.20;;;;;;5019295;28;20512;-79
2023/11/18 11:02:42;;;;;;;1.60;1.20;;;8.00;98.20;;;;;;5001750;28;20671;-78
2023/11/18 11:05:15;;;;;;;1.70;1.40;;;8.00;98.20;;;;;;5023403;28;20487;-78
2023/11/18 11:07:44;;;;;;;1.67;1.30;;;8.00;98.20;;;;;;5019653;28;20597;-78
2023/11/18 11:10:13;;;;;;;1.67;1.20;;;8.00;98.20;;;;;;5024922;28;20490;-78
2023/11/18 11:12:52;;;;;;;1.67;1.23;;;8.10;98.20;;;;;;5020451;28;20600;-79
2023/11/18 11:15:28;;;;;;;1.60;1.20;;;8.10;98.20;;;;;;5018329;28;20498;-78
2023/11/18 11:18:02;;;;;;;3.80;3.50;;;8.20;98.20;;;;;;5023847;28;20485;-80
2023/11/18 11:20:35;;;;;;;1.60;1.20;;;8.20;98.20;;;;;;5024848;28;20467;-78
2023/11/18 11:23:08;;;;;;;1.90;1.70;;;8.30;98.20;;;;;;5005792;28;20492;-78
2023/11/18 11:25:45;;;;;;;1.70;1.30;;;8.30;98.20;;;;;;5023945;28;20567;-77
2023/11/18 11:28:19;;;;;;;1.67;1.23;;;8.30;98.20;;;;;;5011958;28;20557;-78
2023/11/18 11:30:56;;;;;;;1.60;1.20;;;8.30;98.20;;;;;;5026274;28;20861;-77
2023/11/18 11:33:32;;;;;;;2.07;1.87;;;8.30;98.20;;;;;;5030218;28;20481;-76
2023/11/18 11:36:03;;;;;;;1.80;1.57;;;8.20;98.20;;;;;;5013656;28;20463;-76
2023/11/18 11:38:32;;;;;;;1.60;1.20;;;8.20;98.20;;;;;;5036458;28;20851;-77
2023/11/18 11:41:05;;;;;;;1.60;1.30;;;8.20;98.20;;;;;;5013913;28;20481;-77
2023/11/18 11:43:35;;;;;;;1.60;1.20;;;8.20;98.20;;;;;;5027337;28;20491;-77
2023/11/18 11:46:10;;;;;;;2.37;2.17;;;8.20;98.20;;;;;;5013098;28;20969;-77
2023/11/18 11:48:38;;;;;;;1.67;1.30;;;8.20;98.20;;;;;;5035796;28;20490;-78
2023/11/18 11:51:20;;;;;;;1.60;1.20;;;8.20;98.20;;;;;;5007949;28;20733;-80
2023/11/18 11:53:52;;;;;;;1.60;1.20;;;8.30;98.20;;;;;;5017410;28;20487;-79
2023/11/18 11:56:21;;;;;;;1.60;1.20;;;8.30;98.20;;;;;;5017313;28;20483;-78
2023/11/18 11:58:53;;;;;;;1.60;1.20;;;8.30;98.20;;;;;;5025550;28;20796;-77
2023/11/18 12:01:32;;;;;;;1.70;1.30;;;8.40;98.20;;;;;;5016737;28;21067;-78
2023/11/18 12:04:06;;;;;;;1.60;1.10;;;8.40;98.20;;;;;;5032112;28;21010;-78
2023/11/18 12:06:35;;;;;;;1.63;1.20;;;8.40;98.20;;;;;;5014402;28;20487;-77
2023/11/18 12:09:07;;;;;;;1.67;1.20;;;8.40;98.20;;;;;;5025106;28;21021;-77
2023/11/18 12:11:39;;;;;;;1.60;1.20;;;8.40;98.20;;;;;;5010739;28;20521;-78
2023/11/18 12:14:12;;;;;;;1.67;1.20;;;8.40;98.20;;;;;;5018977;28;20495;-77
2023/11/18 12:17:07;;;;;;;1.60;1.20;;;8.40;98.20;;;;;;5013967;28;20502;-78
2023/11/18 12:19:44;;;;;;;1.60;1.20;;;8.50;98.20;;;;;;5023343;28;20513;-78
2023/11/18 12:22:17;;;;;;;1.60;1.30;;;8.50;98.20;;;;;;5005655;28;20481;-77
2023/11/18 12:24:46;;;;;;;1.60;1.20;;;8.50;98.20;;;;;;5020247;28;20989;-78
2023/11/18 12:27:13;;;;;;;1.60;1.20;;;8.50;98.20;;;;;;5017488;28;20495;-78
2023/11/18 12:29:44;;;;;;;1.67;1.20;;;8.50;98.20;;;;;;5025228;28;20491;-78
2023/11/18 12:32:33;;;;;;;1.60;1.13;;;8.50;98.20;;;;;;5008093;28;20788;-77
2023/11/18 12:35:00;;;;;;;1.70;1.30;;;8.50;98.20;;;;;;5022830;28;20495;-77
2023/11/18 12:38:03;;;;;;;1.67;1.20;;;8.50;98.20;;;;;;5010403;28;20503;-77
2023/11/18 12:40:56;;;;;;;2.17;1.97;;;8.50;98.20;;;;;;5023816;28;20579;-78
2023/11/18 12:43:48;;;;;;;1.70;1.30;;;8.50;98.20;;;;;;4998544;28;20483;-77
2023/11/18 12:46:50;;;;;;;1.60;1.20;;;8.60;98.20;;;;;;5009848;28;20642;-77
2023/11/18 12:49:23;;;;;;;1.60;1.20;;;8.60;98.20;;;;;;5019000;28;20518;-79
2023/11/18 12:51:57;;;;;;;1.70;1.30;;;8.60;98.20;;;;;;5009442;28;20880;-78
2023/11/18 12:54:28;;;;;;;1.67;1.27;;;8.50;98.20;;;;;;5017351;28;20487;-78
2023/11/18 12:56:56;;;;;;;1.60;1.20;;;8.50;98.20;;;;;;5012692;28;21009;-77
2023/11/18 12:59:30;;;;;;;1.67;1.30;;;8.60;98.20;;;;;;5019274;28;20482;-79
2023/11/18 13:01:57;;;;;;;1.60;1.20;;;8.50;98.20;;;;;;5013683;28;20489;-78
2023/11/18 13:04:27;;;;;;;1.60;1.10;;;8.50;98.20;;;;;;5024968;28;20499;-77
2023/11/18 13:06:55;;;;;;;1.63;1.30;;;8.50;98.20;;;;;;5014114;28;20490;-75
2023/11/18 13:09:26;;;;;;;1.60;1.30;;;8.60;98.20;;;;;;5029152;28;20483;-77
2023/11/18 13:11:57;;;;;;;1.67;1.30;;;8.50;98.20;;;;;;5020148;28;20952;-76